sensor_id;sensor_type;location;lat;lon;timestamp;P1;durP1;ratioP1;P2;durP2;ratioP2
28802;SDS011;15949;55.656;37.422;2022-07-06T00:02:16;52.88;;;43.25;;
28802;SDS011;15949;55.656;37.422;2022-07-06T00:07:21;51.92;;;43.95;;
28802;SDS011;15949;55.656;37.422;2022-07-06T00:12:27;54.40;;;43.42;;
28802;SDS011;15949;55.656;37.422;2022-07-06T00:17:33;58.55;;;45.17;;
28802;SDS011;15949;55.656;37.422;2022-07-06T00:22:39;72.18;;;50.63;;
28802;SDS011;15949;55.656;37.422;2022-07-06T00:27:44;63.88;;;50.38;;
28802;SDS011;15949;55.656;37.422;2022-07-06T00:32:50;59.65;;;47.08;;
28802;SDS011;15949;55.656;37.422;2022-07-06T00:37:55;55.40;;;43.97;;
28802;SDS011;15949;55.656;37.422;2022-07-06T00:43:01;60.05;;;46.42;;
28802;SDS011;15949;55.656;37.422;2022-07-06T00:48:07;53.85;;;44.08;;
28802;SDS011;15949;55.656;37.422;2022-07-06T00:53:12;69.15;;;50.55;;
28802;SDS011;15949;55.656;37.422;2022-07-06T00:58:18;60.20;;;44.83;;
28802;SDS011;15949;55.656;37.422;2022-07-06T01:03:25;58.35;;;45.28;;
28802;SDS011;15949;55.656;37.422;2022-07-06T01:08:30;60.92;;;48.03;;
28802;SDS011;15949;55.656;37.422;2022-07-06T01:13:36;57.33;;;44.35;;
28802;SDS011;15949;55.656;37.422;2022-07-06T01:18:43;58.55;;;42.20;;
28802;SDS011;15949;55.656;37.422;2022-07-06T01:23:48;56.35;;;40.97;;
28802;SDS011;15949;55.656;37.422;2022-07-06T01:28:54;51.38;;;40.65;;
28802;SDS011;15949;55.656;37.422;2022-07-06T01:34:00;50.58;;;42.95;;
28802;SDS011;15949;55.656;37.422;2022-07-06T01:39:05;54.42;;;43.65;;
28802;SDS011;15949;55.656;37.422;2022-07-06T01:44:13;61.13;;;44.92;;
28802;SDS011;15949;55.656;37.422;2022-07-06T01:49:19;53.00;;;42.33;;
28802;SDS011;15949;55.656;37.422;2022-07-06T01:54:24;53.22;;;43.28;;
28802;SDS011;15949;55.656;37.422;2022-07-06T01:59:30;61.13;;;46.00;;
28802;SDS011;15949;55.656;37.422;2022-07-06T02:04:36;52.75;;;45.13;;
28802;SDS011;15949;55.656;37.422;2022-07-06T02:09:41;64.10;;;49.38;;
28802;SDS011;15949;55.656;37.422;2022-07-06T02:14:47;59.90;;;48.72;;
28802;SDS011;15949;55.656;37.422;2022-07-06T02:19:52;63.90;;;49.45;;
28802;SDS011;15949;55.656;37.422;2022-07-06T02:24:58;66.85;;;49.63;;
28802;SDS011;15949;55.656;37.422;2022-07-06T02:30:04;78.43;;;55.60;;
28802;SDS011;15949;55.656;37.422;2022-07-06T02:35:11;67.35;;;52.88;;
28802;SDS011;15949;55.656;37.422;2022-07-06T02:40:16;72.95;;;54.85;;
28802;SDS011;15949;55.656;37.422;2022-07-06T02:45:22;64.68;;;49.38;;
28802;SDS011;15949;55.656;37.422;2022-07-06T02:50:28;59.33;;;46.80;;
28802;SDS011;15949;55.656;37.422;2022-07-06T02:55:33;57.80;;;47.58;;
28802;SDS011;15949;55.656;37.422;2022-07-06T03:00:39;55.22;;;46.03;;
28802;SDS011;15949;55.656;37.422;2022-07-06T03:05:45;52.70;;;40.38;;
28802;SDS011;15949;55.656;37.422;2022-07-06T03:10:52;51.83;;;41.25;;
28802;SDS011;15949;55.656;37.422;2022-07-06T03:15:57;49.85;;;38.63;;
28802;SDS011;15949;55.656;37.422;2022-07-06T03:21:03;47.00;;;40.58;;
28802;SDS011;15949;55.656;37.422;2022-07-06T03:26:08;49.00;;;39.00;;
28802;SDS011;15949;55.656;37.422;2022-07-06T03:31:14;47.70;;;38.42;;
28802;SDS011;15949;55.656;37.422;2022-07-06T03:36:20;39.30;;;28.20;;
28802;SDS011;15949;55.656;37.422;2022-07-06T03:41:25;32.10;;;25.45;;
28802;SDS011;15949;55.656;37.422;2022-07-06T03:46:31;33.00;;;26.52;;
28802;SDS011;15949;55.656;37.422;2022-07-06T03:51:36;31.13;;;25.00;;
28802;SDS011;15949;55.656;37.422;2022-07-06T03:56:42;36.00;;;28.80;;
28802;SDS011;15949;55.656;37.422;2022-07-06T04:01:48;27.00;;;22.35;;
28802;SDS011;15949;55.656;37.422;2022-07-06T04:06:54;24.85;;;18.45;;
28802;SDS011;15949;55.656;37.422;2022-07-06T04:11:59;23.83;;;20.17;;
28802;SDS011;15949;55.656;37.422;2022-07-06T04:17:05;19.08;;;16.23;;
28802;SDS011;15949;55.656;37.422;2022-07-06T04:22:29;23.17;;;17.20;;
28802;SDS011;15949;55.656;37.422;2022-07-06T04:27:34;22.38;;;17.70;;
28802;SDS011;15949;55.656;37.422;2022-07-06T04:32:40;21.15;;;18.95;;
28802;SDS011;15949;55.656;37.422;2022-07-06T04:37:46;20.50;;;18.27;;
28802;SDS011;15949;55.656;37.422;2022-07-06T04:42:51;22.75;;;17.17;;
28802;SDS011;15949;55.656;37.422;2022-07-06T04:47:57;24.02;;;18.52;;
28802;SDS011;15949;55.656;37.422;2022-07-06T04:53:03;20.88;;;18.20;;
28802;SDS011;15949;55.656;37.422;2022-07-06T04:58:08;19.48;;;15.43;;
28802;SDS011;15949;55.656;37.422;2022-07-06T05:03:14;15.52;;;13.93;;
28802;SDS011;15949;55.656;37.422;2022-07-06T05:08:20;18.63;;;14.73;;
28802;SDS011;15949;55.656;37.422;2022-07-06T05:13:25;24.13;;;15.57;;
28802;SDS011;15949;55.656;37.422;2022-07-06T05:18:31;23.80;;;15.63;;
28802;SDS011;15949;55.656;37.422;2022-07-06T05:23:37;16.38;;;14.20;;
28802;SDS011;15949;55.656;37.422;2022-07-06T05:28:42;27.17;;;16.60;;
28802;SDS011;15949;55.656;37.422;2022-07-06T05:33:48;29.25;;;18.17;;
28802;SDS011;15949;55.656;37.422;2022-07-06T05:38:54;30.58;;;16.50;;
28802;SDS011;15949;55.656;37.422;2022-07-06T05:43:59;26.92;;;15.32;;
28802;SDS011;15949;55.656;37.422;2022-07-06T05:49:05;23.92;;;13.75;;
28802;SDS011;15949;55.656;37.422;2022-07-06T05:54:29;17.63;;;15.07;;
28802;SDS011;15949;55.656;37.422;2022-07-06T05:59:35;22.38;;;18.45;;
28802;SDS011;15949;55.656;37.422;2022-07-06T06:04:40;21.00;;;15.75;;
28802;SDS011;15949;55.656;37.422;2022-07-06T06:09:46;18.52;;;15.07;;
28802;SDS011;15949;55.656;37.422;2022-07-06T06:14:51;13.07;;;11.60;;
28802;SDS011;15949;55.656;37.422;2022-07-06T06:19:57;15.55;;;11.40;;
28802;SDS011;15949;55.656;37.422;2022-07-06T06:25:04;11.38;;;9.63;;
28802;SDS011;15949;55.656;37.422;2022-07-06T06:30:09;11.23;;;9.70;;
28802;SDS011;15949;55.656;37.422;2022-07-06T06:35:16;13.00;;;9.32;;
28802;SDS011;15949;55.656;37.422;2022-07-06T06:40:21;14.85;;;9.93;;
28802;SDS011;15949;55.656;37.422;2022-07-06T06:45:27;13.23;;;10.02;;
28802;SDS011;15949;55.656;37.422;2022-07-06T06:50:33;14.70;;;10.43;;
28802;SDS011;15949;55.656;37.422;2022-07-06T06:55:38;13.55;;;10.98;;
28802;SDS011;15949;55.656;37.422;2022-07-06T07:00:44;14.57;;;10.55;;
28802;SDS011;15949;55.656;37.422;2022-07-06T07:05:50;11.73;;;9.02;;
28802;SDS011;15949;55.656;37.422;2022-07-06T07:10:55;15.10;;;9.70;;
28802;SDS011;15949;55.656;37.422;2022-07-06T07:16:01;11.75;;;9.38;;
28802;SDS011;15949;55.656;37.422;2022-07-06T07:21:07;10.88;;;9.25;;
28802;SDS011;15949;55.656;37.422;2022-07-06T07:26:12;13.18;;;10.20;;
28802;SDS011;15949;55.656;37.422;2022-07-06T07:31:18;17.95;;;10.10;;
28802;SDS011;15949;55.656;37.422;2022-07-06T07:36:23;14.13;;;10.07;;
28802;SDS011;15949;55.656;37.422;2022-07-06T07:41:30;11.70;;;10.02;;
28802;SDS011;15949;55.656;37.422;2022-07-06T07:46:36;16.42;;;10.35;;
28802;SDS011;15949;55.656;37.422;2022-07-06T07:51:41;14.10;;;10.10;;
28802;SDS011;15949;55.656;37.422;2022-07-06T07:56:47;13.18;;;9.88;;
28802;SDS011;15949;55.656;37.422;2022-07-06T08:01:52;12.20;;;9.90;;
28802;SDS011;15949;55.656;37.422;2022-07-06T08:06:58;11.95;;;10.73;;
28802;SDS011;15949;55.656;37.422;2022-07-06T08:12:04;18.20;;;10.88;;
28802;SDS011;15949;55.656;37.422;2022-07-06T08:17:10;14.52;;;12.23;;
28802;SDS011;15949;55.656;37.422;2022-07-06T08:22:15;15.57;;;11.93;;
28802;SDS011;15949;55.656;37.422;2022-07-06T08:27:21;18.33;;;11.98;;
28802;SDS011;15949;55.656;37.422;2022-07-06T08:32:27;14.13;;;11.13;;
28802;SDS011;15949;55.656;37.422;2022-07-06T08:37:32;14.60;;;12.23;;
28802;SDS011;15949;55.656;37.422;2022-07-06T08:42:38;16.90;;;12.77;;
28802;SDS011;15949;55.656;37.422;2022-07-06T08:47:44;16.67;;;11.85;;
28802;SDS011;15949;55.656;37.422;2022-07-06T08:52:49;18.15;;;12.60;;
28802;SDS011;15949;55.656;37.422;2022-07-06T08:57:56;17.13;;;11.68;;
28802;SDS011;15949;55.656;37.422;2022-07-06T09:03:02;13.38;;;11.23;;
28802;SDS011;15949;55.656;37.422;2022-07-06T09:08:08;15.88;;;11.07;;
28802;SDS011;15949;55.656;37.422;2022-07-06T09:13:14;13.05;;;10.27;;
28802;SDS011;15949;55.656;37.422;2022-07-06T09:18:23;13.07;;;9.88;;
28802;SDS011;15949;55.656;37.422;2022-07-06T09:23:28;11.15;;;10.05;;
28802;SDS011;15949;55.656;37.422;2022-07-06T09:28:41;13.13;;;10.77;;
28802;SDS011;15949;55.656;37.422;2022-07-06T09:34:00;12.45;;;11.15;;
28802;SDS011;15949;55.656;37.422;2022-07-06T09:39:16;15.40;;;11.85;;
28802;SDS011;15949;55.656;37.422;2022-07-06T09:44:29;17.98;;;12.73;;
28802;SDS011;15949;55.656;37.422;2022-07-06T09:49:39;14.80;;;11.00;;
28802;SDS011;15949;55.656;37.422;2022-07-06T09:54:48;13.15;;;8.93;;
28802;SDS011;15949;55.656;37.422;2022-07-06T09:59:53;11.77;;;9.50;;
28802;SDS011;15949;55.656;37.422;2022-07-06T10:04:59;12.27;;;9.48;;
28802;SDS011;15949;55.656;37.422;2022-07-06T10:10:07;11.15;;;9.40;;
28802;SDS011;15949;55.656;37.422;2022-07-06T10:15:13;10.95;;;9.40;;
28802;SDS011;15949;55.656;37.422;2022-07-06T10:20:20;16.10;;;8.93;;
28802;SDS011;15949;55.656;37.422;2022-07-06T10:25:26;11.38;;;8.50;;
28802;SDS011;15949;55.656;37.422;2022-07-06T10:30:33;9.77;;;8.43;;
28802;SDS011;15949;55.656;37.422;2022-07-06T10:35:39;10.98;;;8.32;;
28802;SDS011;15949;55.656;37.422;2022-07-06T10:40:46;10.88;;;8.55;;
28802;SDS011;15949;55.656;37.422;2022-07-06T10:46:13;9.73;;;7.82;;
28802;SDS011;15949;55.656;37.422;2022-07-06T10:51:24;11.52;;;7.82;;
28802;SDS011;15949;55.656;37.422;2022-07-06T10:56:31;10.25;;;7.50;;
28802;SDS011;15949;55.656;37.422;2022-07-06T11:07:24;10.82;;;7.47;;
28802;SDS011;15949;55.656;37.422;2022-07-06T11:12:29;10.40;;;7.55;;
28802;SDS011;15949;55.656;37.422;2022-07-06T11:17:35;10.43;;;7.60;;
28802;SDS011;15949;55.656;37.422;2022-07-06T11:22:41;12.00;;;8.77;;
28802;SDS011;15949;55.656;37.422;2022-07-06T11:27:48;9.23;;;7.37;;
28802;SDS011;15949;55.656;37.422;2022-07-06T11:32:54;12.35;;;6.47;;
28802;SDS011;15949;55.656;37.422;2022-07-06T11:38:01;7.93;;;6.20;;
28802;SDS011;15949;55.656;37.422;2022-07-06T11:43:31;7.53;;;6.82;;
28802;SDS011;15949;55.656;37.422;2022-07-06T11:48:37;9.80;;;7.60;;
28802;SDS011;15949;55.656;37.422;2022-07-06T11:53:46;12.15;;;8.35;;
28802;SDS011;15949;55.656;37.422;2022-07-06T11:58:54;8.50;;;7.15;;
28802;SDS011;15949;55.656;37.422;2022-07-06T12:04:01;9.07;;;6.90;;
28802;SDS011;15949;55.656;37.422;2022-07-06T12:09:10;10.23;;;7.40;;
28802;SDS011;15949;55.656;37.422;2022-07-06T12:14:17;11.05;;;9.35;;
28802;SDS011;15949;55.656;37.422;2022-07-06T12:19:24;17.80;;;10.40;;
28802;SDS011;15949;55.656;37.422;2022-07-06T12:24:30;12.05;;;10.20;;
28802;SDS011;15949;55.656;37.422;2022-07-06T12:29:37;11.18;;;9.23;;
28802;SDS011;15949;55.656;37.422;2022-07-06T12:34:43;12.98;;;8.55;;
28802;SDS011;15949;55.656;37.422;2022-07-06T12:39:49;18.88;;;9.20;;
28802;SDS011;15949;55.656;37.422;2022-07-06T12:44:55;11.77;;;9.40;;
28802;SDS011;15949;55.656;37.422;2022-07-06T12:50:07;15.45;;;9.40;;
28802;SDS011;15949;55.656;37.422;2022-07-06T12:55:15;11.88;;;9.45;;
28802;SDS011;15949;55.656;37.422;2022-07-06T13:00:21;17.17;;;10.35;;
28802;SDS011;15949;55.656;37.422;2022-07-06T13:05:27;18.85;;;10.55;;
28802;SDS011;15949;55.656;37.422;2022-07-06T13:10:33;16.40;;;10.27;;
28802;SDS011;15949;55.656;37.422;2022-07-06T13:15:43;15.85;;;8.85;;
28802;SDS011;15949;55.656;37.422;2022-07-06T13:20:49;14.98;;;9.00;;
28802;SDS011;15949;55.656;37.422;2022-07-06T13:25:54;14.23;;;8.85;;
28802;SDS011;15949;55.656;37.422;2022-07-06T13:31:00;11.02;;;8.63;;
28802;SDS011;15949;55.656;37.422;2022-07-06T13:36:05;14.13;;;9.27;;
28802;SDS011;15949;55.656;37.422;2022-07-06T13:41:11;16.58;;;10.10;;
28802;SDS011;15949;55.656;37.422;2022-07-06T13:46:17;15.52;;;9.52;;
28802;SDS011;15949;55.656;37.422;2022-07-06T13:51:23;12.57;;;9.60;;
28802;SDS011;15949;55.656;37.422;2022-07-06T13:56:29;17.05;;;9.35;;
28802;SDS011;15949;55.656;37.422;2022-07-06T14:01:35;16.15;;;9.93;;
28802;SDS011;15949;55.656;37.422;2022-07-06T14:06:41;12.45;;;9.50;;
28802;SDS011;15949;55.656;37.422;2022-07-06T14:11:47;15.95;;;9.48;;
28802;SDS011;15949;55.656;37.422;2022-07-06T14:16:52;16.85;;;9.05;;
28802;SDS011;15949;55.656;37.422;2022-07-06T14:21:59;12.95;;;8.73;;
28802;SDS011;15949;55.656;37.422;2022-07-06T14:27:05;16.40;;;9.15;;
28802;SDS011;15949;55.656;37.422;2022-07-06T14:32:10;16.13;;;9.00;;
28802;SDS011;15949;55.656;37.422;2022-07-06T14:37:17;14.77;;;8.40;;
28802;SDS011;15949;55.656;37.422;2022-07-06T14:42:22;14.18;;;7.30;;
28802;SDS011;15949;55.656;37.422;2022-07-06T14:47:28;11.18;;;7.00;;
28802;SDS011;15949;55.656;37.422;2022-07-06T14:52:33;8.48;;;6.13;;
28802;SDS011;15949;55.656;37.422;2022-07-06T14:57:39;8.75;;;6.72;;
28802;SDS011;15949;55.656;37.422;2022-07-06T15:02:45;13.50;;;7.70;;
28802;SDS011;15949;55.656;37.422;2022-07-06T15:07:50;10.50;;;7.10;;
28802;SDS011;15949;55.656;37.422;2022-07-06T15:12:56;12.25;;;7.85;;
28802;SDS011;15949;55.656;37.422;2022-07-06T15:18:02;9.98;;;7.85;;
28802;SDS011;15949;55.656;37.422;2022-07-06T15:23:08;15.43;;;8.32;;
28802;SDS011;15949;55.656;37.422;2022-07-06T15:28:13;10.05;;;8.27;;
28802;SDS011;15949;55.656;37.422;2022-07-06T15:33:20;13.10;;;7.90;;
28802;SDS011;15949;55.656;37.422;2022-07-06T15:38:26;16.25;;;9.07;;
28802;SDS011;15949;55.656;37.422;2022-07-06T15:43:32;11.32;;;7.78;;
28802;SDS011;15949;55.656;37.422;2022-07-06T15:48:38;13.80;;;8.57;;
28802;SDS011;15949;55.656;37.422;2022-07-06T15:53:44;10.10;;;8.40;;
28802;SDS011;15949;55.656;37.422;2022-07-06T15:58:50;14.68;;;8.82;;
28802;SDS011;15949;55.656;37.422;2022-07-06T16:03:56;10.50;;;9.40;;
28802;SDS011;15949;55.656;37.422;2022-07-06T16:09:01;13.75;;;10.35;;
28802;SDS011;15949;55.656;37.422;2022-07-06T16:14:07;15.20;;;8.45;;
28802;SDS011;15949;55.656;37.422;2022-07-06T16:19:14;13.98;;;8.10;;
28802;SDS011;15949;55.656;37.422;2022-07-06T16:24:19;13.85;;;7.90;;
28802;SDS011;15949;55.656;37.422;2022-07-06T16:29:25;10.82;;;8.52;;
28802;SDS011;15949;55.656;37.422;2022-07-06T16:34:31;12.02;;;8.10;;
28802;SDS011;15949;55.656;37.422;2022-07-06T16:39:36;9.00;;;7.20;;
28802;SDS011;15949;55.656;37.422;2022-07-06T16:44:42;8.15;;;6.90;;
28802;SDS011;15949;55.656;37.422;2022-07-06T16:49:48;9.80;;;6.18;;
28802;SDS011;15949;55.656;37.422;2022-07-06T16:54:54;6.53;;;5.47;;
28802;SDS011;15949;55.656;37.422;2022-07-06T17:00:00;6.53;;;5.63;;
28802;SDS011;15949;55.656;37.422;2022-07-06T17:05:05;5.93;;;4.78;;
28802;SDS011;15949;55.656;37.422;2022-07-06T17:10:11;7.03;;;5.00;;
28802;SDS011;15949;55.656;37.422;2022-07-06T17:15:17;6.10;;;4.70;;
28802;SDS011;15949;55.656;37.422;2022-07-06T17:20:22;8.95;;;5.60;;
28802;SDS011;15949;55.656;37.422;2022-07-06T17:25:28;11.02;;;6.40;;
28802;SDS011;15949;55.656;37.422;2022-07-06T17:30:33;11.07;;;7.47;;
28802;SDS011;15949;55.656;37.422;2022-07-06T17:35:41;10.95;;;8.20;;
28802;SDS011;15949;55.656;37.422;2022-07-06T17:40:47;16.20;;;9.60;;
28802;SDS011;15949;55.656;37.422;2022-07-06T17:45:52;15.52;;;11.02;;
28802;SDS011;15949;55.656;37.422;2022-07-06T17:50:58;19.77;;;12.32;;
28802;SDS011;15949;55.656;37.422;2022-07-06T17:56:04;16.17;;;11.80;;
28802;SDS011;15949;55.656;37.422;2022-07-06T18:01:10;17.83;;;12.45;;
28802;SDS011;15949;55.656;37.422;2022-07-06T18:06:15;17.17;;;13.95;;
28802;SDS011;15949;55.656;37.422;2022-07-06T18:11:21;19.30;;;14.18;;
28802;SDS011;15949;55.656;37.422;2022-07-06T18:16:28;22.27;;;15.35;;
28802;SDS011;15949;55.656;37.422;2022-07-06T18:21:34;23.73;;;16.35;;
28802;SDS011;15949;55.656;37.422;2022-07-06T18:26:41;20.42;;;15.63;;
28802;SDS011;15949;55.656;37.422;2022-07-06T18:31:47;21.83;;;16.40;;
28802;SDS011;15949;55.656;37.422;2022-07-06T18:36:53;19.42;;;15.10;;
28802;SDS011;15949;55.656;37.422;2022-07-06T18:41:59;20.75;;;16.90;;
28802;SDS011;15949;55.656;37.422;2022-07-06T18:47:04;23.95;;;17.52;;
28802;SDS011;15949;55.656;37.422;2022-07-06T18:52:10;21.67;;;16.88;;
28802;SDS011;15949;55.656;37.422;2022-07-06T18:57:16;48.40;;;37.15;;
28802;SDS011;15949;55.656;37.422;2022-07-06T19:02:21;47.58;;;32.45;;
28802;SDS011;15949;55.656;37.422;2022-07-06T19:07:27;28.63;;;21.75;;
28802;SDS011;15949;55.656;37.422;2022-07-06T19:12:32;23.63;;;17.08;;
28802;SDS011;15949;55.656;37.422;2022-07-06T19:17:38;18.05;;;15.23;;
28802;SDS011;15949;55.656;37.422;2022-07-06T19:22:44;22.50;;;16.80;;
28802;SDS011;15949;55.656;37.422;2022-07-06T19:27:50;24.55;;;16.92;;
28802;SDS011;15949;55.656;37.422;2022-07-06T19:32:56;17.90;;;14.68;;
28802;SDS011;15949;55.656;37.422;2022-07-06T19:38:02;18.35;;;13.65;;
28802;SDS011;15949;55.656;37.422;2022-07-06T19:43:07;20.35;;;13.02;;
28802;SDS011;15949;55.656;37.422;2022-07-06T19:48:13;16.20;;;13.23;;
28802;SDS011;15949;55.656;37.422;2022-07-06T19:53:19;15.00;;;11.02;;
28802;SDS011;15949;55.656;37.422;2022-07-06T19:58:25;14.27;;;12.15;;
28802;SDS011;15949;55.656;37.422;2022-07-06T20:03:31;15.82;;;12.57;;
28802;SDS011;15949;55.656;37.422;2022-07-06T20:08:37;16.65;;;12.85;;
28802;SDS011;15949;55.656;37.422;2022-07-06T20:13:42;16.92;;;12.88;;
28802;SDS011;15949;55.656;37.422;2022-07-06T20:18:48;16.75;;;12.90;;
28802;SDS011;15949;55.656;37.422;2022-07-06T20:23:54;16.92;;;13.45;;
28802;SDS011;15949;55.656;37.422;2022-07-06T20:28:59;18.27;;;14.40;;
28802;SDS011;15949;55.656;37.422;2022-07-06T20:34:06;18.33;;;15.48;;
28802;SDS011;15949;55.656;37.422;2022-07-06T20:39:11;18.95;;;15.25;;
28802;SDS011;15949;55.656;37.422;2022-07-06T20:44:17;18.10;;;16.00;;
28802;SDS011;15949;55.656;37.422;2022-07-06T20:49:23;23.25;;;17.17;;
28802;SDS011;15949;55.656;37.422;2022-07-06T20:54:28;26.77;;;17.33;;
28802;SDS011;15949;55.656;37.422;2022-07-06T20:59:34;23.42;;;17.40;;
28802;SDS011;15949;55.656;37.422;2022-07-06T21:04:41;22.33;;;18.27;;
28802;SDS011;15949;55.656;37.422;2022-07-06T21:09:47;26.63;;;18.35;;
28802;SDS011;15949;55.656;37.422;2022-07-06T21:14:53;28.42;;;19.40;;
28802;SDS011;15949;55.656;37.422;2022-07-06T21:19:58;24.02;;;17.45;;
28802;SDS011;15949;55.656;37.422;2022-07-06T21:25:04;21.75;;;17.15;;
28802;SDS011;15949;55.656;37.422;2022-07-06T21:30:10;22.88;;;16.33;;
28802;SDS011;15949;55.656;37.422;2022-07-06T21:35:16;23.90;;;16.75;;
28802;SDS011;15949;55.656;37.422;2022-07-06T21:40:21;19.73;;;16.85;;
28802;SDS011;15949;55.656;37.422;2022-07-06T21:45:27;21.00;;;16.52;;
28802;SDS011;15949;55.656;37.422;2022-07-06T21:50:32;18.27;;;16.30;;
28802;SDS011;15949;55.656;37.422;2022-07-06T21:55:39;20.67;;;16.45;;
28802;SDS011;15949;55.656;37.422;2022-07-06T22:00:45;20.55;;;16.27;;
28802;SDS011;15949;55.656;37.422;2022-07-06T22:05:50;20.08;;;16.60;;
28802;SDS011;15949;55.656;37.422;2022-07-06T22:10:56;22.15;;;17.23;;
28802;SDS011;15949;55.656;37.422;2022-07-06T22:16:02;21.08;;;15.40;;
28802;SDS011;15949;55.656;37.422;2022-07-06T22:21:08;22.48;;;16.65;;
28802;SDS011;15949;55.656;37.422;2022-07-06T22:26:15;22.95;;;16.60;;
28802;SDS011;15949;55.656;37.422;2022-07-06T22:31:25;20.90;;;15.60;;
28802;SDS011;15949;55.656;37.422;2022-07-06T22:36:30;19.25;;;14.75;;
28802;SDS011;15949;55.656;37.422;2022-07-06T22:41:39;18.38;;;14.98;;
28802;SDS011;15949;55.656;37.422;2022-07-06T22:46:44;21.27;;;14.68;;
28802;SDS011;15949;55.656;37.422;2022-07-06T22:51:50;26.67;;;15.18;;
28802;SDS011;15949;55.656;37.422;2022-07-06T22:56:56;18.02;;;14.77;;
28802;SDS011;15949;55.656;37.422;2022-07-06T23:02:01;22.65;;;15.57;;
28802;SDS011;15949;55.656;37.422;2022-07-06T23:07:07;24.50;;;14.82;;
28802;SDS011;15949;55.656;37.422;2022-07-06T23:12:12;21.15;;;14.93;;
28802;SDS011;15949;55.656;37.422;2022-07-06T23:17:18;18.65;;;14.90;;
28802;SDS011;15949;55.656;37.422;2022-07-06T23:22:24;19.13;;;15.55;;
28802;SDS011;15949;55.656;37.422;2022-07-06T23:27:29;25.98;;;15.32;;
28802;SDS011;15949;55.656;37.422;2022-07-06T23:32:35;15.68;;;14.07;;
28802;SDS011;15949;55.656;37.422;2022-07-06T23:37:41;17.77;;;14.80;;
28802;SDS011;15949;55.656;37.422;2022-07-06T23:42:46;14.82;;;13.07;;
28802;SDS011;15949;55.656;37.422;2022-07-06T23:47:52;18.20;;;14.07;;
28802;SDS011;15949;55.656;37.422;2022-07-06T23:52:58;19.48;;;13.20;;
28802;SDS011;15949;55.656;37.422;2022-07-06T23:58:03;16.77;;;13.45;;
